SVA711 OERK-OPKC
Flight info
| Callsign | SVA711 |
|---|---|
| Flight time | N/A |
| Altitude | 35000 |
| Route | DCT RAPMA DCT KUVSO DCT KATIT DCT MIDGU M440 TULBU G652 SODEB G216 LAKIV LAKIV1B |
| Aircraft | A339/H-SADE1E2E3GHIJ3J5M1P2RWXY/LB2D1 |
Departure
| Time | 2026-05-07 11:36 |
|---|---|
| Airport | King Khalid International Airport (OERK) |
Arrival
| Time | N/A |
|---|---|
| Airport | Jinnah International Airport (OPKC) |
| Time | Latitude | Longitude | Altitude | Speed | Heading |
|---|---|---|---|---|---|
| 2026-05-07 11:16 | 24.96416 | 46.70225 | 2074 ft | 0 kts | 257° |
| 2026-05-07 11:24 | 24.96418 | 46.70231 | 2047 ft | 1 kts | 257° |
| 2026-05-07 11:25 | 24.96419 | 46.70239 | 2052 ft | 1 kts | 257° |
| 2026-05-07 11:25 | 24.96423 | 46.70258 | 2047 ft | 3 kts | 261° |
| 2026-05-07 11:25 | 24.96426 | 46.70281 | 2047 ft | 3 kts | 275° |
| 2026-05-07 11:25 | 24.96424 | 46.70304 | 2046 ft | 3 kts | 289° |
| 2026-05-07 11:26 | 24.96416 | 46.70325 | 2046 ft | 3 kts | 302° |
| 2026-05-07 11:26 | 24.96404 | 46.70344 | 2048 ft | 3 kts | 319° |
| 2026-05-07 11:26 | 24.96394 | 46.70354 | 2046 ft | 0 kts | 328° |
| 2026-05-07 11:29 | 24.96396 | 46.70352 | 2046 ft | 1 kts | 328° |
| 2026-05-07 11:30 | 24.96414 | 46.70342 | 2048 ft | 4 kts | 330° |
| 2026-05-07 11:30 | 24.96460 | 46.70312 | 2051 ft | 12 kts | 330° |
| 2026-05-07 11:30 | 24.96543 | 46.70261 | 2052 ft | 14 kts | 331° |
| 2026-05-07 11:30 | 24.96626 | 46.70210 | 2051 ft | 14 kts | 331° |
| 2026-05-07 11:31 | 24.96707 | 46.70161 | 2051 ft | 13 kts | 331° |
| 2026-05-07 11:31 | 24.96787 | 46.70112 | 2051 ft | 13 kts | 331° |
| 2026-05-07 11:31 | 24.96864 | 46.70086 | 2055 ft | 11 kts | 13° |
| 2026-05-07 11:31 | 24.96918 | 46.70131 | 2055 ft | 10 kts | 53° |
| 2026-05-07 11:32 | 24.96988 | 46.70257 | 2050 ft | 9 kts | 42° |
| 2026-05-07 11:32 | 24.97046 | 46.70264 | 2053 ft | 8 kts | 347° |
| 2026-05-07 11:32 | 24.97098 | 46.70234 | 2051 ft | 9 kts | 330° |
| 2026-05-07 11:33 | 24.97158 | 46.70196 | 2051 ft | 11 kts | 330° |
| 2026-05-07 11:33 | 24.97233 | 46.70148 | 2051 ft | 14 kts | 330° |
| 2026-05-07 11:33 | 24.97320 | 46.70093 | 2054 ft | 15 kts | 329° |
| 2026-05-07 11:33 | 24.97411 | 46.70080 | 2054 ft | 13 kts | 26° |
| 2026-05-07 11:34 | 24.97463 | 46.70153 | 2051 ft | 12 kts | 56° |
| 2026-05-07 11:34 | 24.97508 | 46.70232 | 2055 ft | 12 kts | 59° |
| 2026-05-07 11:34 | 24.97515 | 46.70304 | 2050 ft | 8 kts | 116° |
| 2026-05-07 11:34 | 24.97477 | 46.70340 | 2055 ft | 7 kts | 142° |
| 2026-05-07 11:35 | 24.97452 | 46.70357 | 2050 ft | 0 kts | 149° |
| 2026-05-07 11:35 | 24.97421 | 46.70377 | 2053 ft | 16 kts | 149° |
| 2026-05-07 11:35 | 24.97158 | 46.70545 | 2053 ft | 79 kts | 150° |
| 2026-05-07 11:35 | 24.96479 | 46.70969 | 2045 ft | 143 kts | 150° |
| 2026-05-07 11:36 | 24.95468 | 46.71601 | 2072 ft | 187 kts | 149° |
| 2026-05-07 11:36 | 24.94279 | 46.72330 | 2398 ft | 205 kts | 149° |
| 2026-05-07 11:36 | 24.93003 | 46.73111 | 2951 ft | 207 kts | 148° |
| 2026-05-07 11:36 | 24.91817 | 46.73858 | 3924 ft | 189 kts | 147° |
| 2026-05-07 11:37 | 24.90675 | 46.74619 | 4307 ft | 199 kts | 148° |
| 2026-05-07 11:37 | 24.89433 | 46.75423 | 4486 ft | 216 kts | 149° |
| 2026-05-07 11:37 | 24.88084 | 46.76282 | 4664 ft | 232 kts | 149° |
| 2026-05-07 11:37 | 24.86642 | 46.77213 | 4814 ft | 247 kts | 148° |
| 2026-05-07 11:38 | 24.85265 | 46.78429 | 4917 ft | 260 kts | 136° |
| 2026-05-07 11:38 | 24.83967 | 46.79869 | 5180 ft | 267 kts | 135° |
| 2026-05-07 11:38 | 24.82681 | 46.81339 | 5676 ft | 266 kts | 135° |
| 2026-05-07 11:38 | 24.81398 | 46.82788 | 6088 ft | 269 kts | 135° |
| 2026-05-07 11:39 | 24.80067 | 46.84256 | 6551 ft | 271 kts | 136° |
| 2026-05-07 11:39 | 24.78718 | 46.85717 | 7038 ft | 273 kts | 137° |
| 2026-05-07 11:39 | 24.77353 | 46.87179 | 7482 ft | 276 kts | 138° |
| 2026-05-07 11:39 | 24.75976 | 46.88661 | 7960 ft | 278 kts | 138° |
| 2026-05-07 11:40 | 24.74595 | 46.90147 | 8450 ft | 278 kts | 138° |
| 2026-05-07 11:40 | 24.73196 | 46.91639 | 8956 ft | 281 kts | 138° |
| 2026-05-07 11:40 | 24.71789 | 46.93140 | 9470 ft | 282 kts | 139° |
| 2026-05-07 11:40 | 24.70372 | 46.94651 | 9971 ft | 284 kts | 139° |
| 2026-05-07 11:41 | 24.68933 | 46.96185 | 10204 ft | 295 kts | 139° |
| 2026-05-07 11:41 | 24.67421 | 46.97800 | 10352 ft | 310 kts | 138° |
| 2026-05-07 11:41 | 24.65843 | 46.99486 | 10457 ft | 325 kts | 138° |
| 2026-05-07 11:41 | 24.64189 | 47.01251 | 10638 ft | 337 kts | 138° |
| 2026-05-07 11:42 | 24.62498 | 47.03059 | 11040 ft | 340 kts | 137° |
| 2026-05-07 11:42 | 24.60793 | 47.04884 | 11452 ft | 343 kts | 137° |
| 2026-05-07 11:42 | 24.59079 | 47.06723 | 11919 ft | 346 kts | 137° |
| 2026-05-07 11:42 | 24.57349 | 47.08572 | 12371 ft | 348 kts | 137° |
| 2026-05-07 11:43 | 24.55605 | 47.10434 | 12852 ft | 350 kts | 137° |
| 2026-05-07 11:43 | 24.53853 | 47.12302 | 13339 ft | 351 kts | 137° |
| 2026-05-07 11:43 | 24.52096 | 47.14176 | 13804 ft | 354 kts | 137° |
| 2026-05-07 11:43 | 24.50321 | 47.16067 | 14185 ft | 357 kts | 137° |
| 2026-05-07 11:44 | 24.48528 | 47.17978 | 14569 ft | 360 kts | 137° |
| 2026-05-07 11:44 | 24.46726 | 47.19900 | 14959 ft | 364 kts | 137° |
| 2026-05-07 11:44 | 24.44899 | 47.21848 | 15364 ft | 367 kts | 137° |
| 2026-05-07 11:44 | 24.43081 | 47.23783 | 15738 ft | 370 kts | 137° |
| 2026-05-07 11:45 | 24.41202 | 47.25780 | 16163 ft | 372 kts | 138° |
| 2026-05-07 11:45 | 24.39355 | 47.27742 | 16543 ft | 375 kts | 138° |
| 2026-05-07 11:45 | 24.37479 | 47.29739 | 16961 ft | 377 kts | 138° |
| 2026-05-07 11:45 | 24.35591 | 47.31748 | 17363 ft | 379 kts | 138° |
| 2026-05-07 11:46 | 24.33687 | 47.33773 | 17793 ft | 381 kts | 138° |
| 2026-05-07 11:46 | 24.31779 | 47.35801 | 18212 ft | 383 kts | 138° |
| 2026-05-07 11:46 | 24.29854 | 47.37844 | 18560 ft | 386 kts | 138° |
| 2026-05-07 11:46 | 24.27917 | 47.39900 | 18841 ft | 389 kts | 138° |
| 2026-05-07 11:47 | 24.25966 | 47.41969 | 18927 ft | 390 kts | 138° |
| 2026-05-07 11:47 | 24.24012 | 47.44042 | 19030 ft | 392 kts | 138° |
| 2026-05-07 11:47 | 24.22050 | 47.46121 | 19432 ft | 393 kts | 138° |
| 2026-05-07 11:47 | 24.20076 | 47.48210 | 19788 ft | 396 kts | 138° |
| 2026-05-07 11:48 | 24.18112 | 47.50288 | 20140 ft | 399 kts | 138° |
| 2026-05-07 11:48 | 24.16108 | 47.52409 | 20490 ft | 401 kts | 138° |
| 2026-05-07 11:48 | 24.14094 | 47.54541 | 20838 ft | 404 kts | 138° |
| 2026-05-07 11:48 | 24.12066 | 47.56686 | 21179 ft | 407 kts | 138° |
| 2026-05-07 11:49 | 24.10019 | 47.58851 | 21523 ft | 410 kts | 138° |
| 2026-05-07 11:49 | 24.07961 | 47.61024 | 21868 ft | 413 kts | 138° |
| 2026-05-07 11:49 | 24.05893 | 47.63208 | 22209 ft | 415 kts | 138° |
| 2026-05-07 11:49 | 24.03804 | 47.65414 | 22562 ft | 418 kts | 138° |
| 2026-05-07 11:50 | 24.01703 | 47.67631 | 22886 ft | 421 kts | 138° |
| 2026-05-07 11:50 | 24.00303 | 47.69107 | 23122 ft | 423 kts | 138° |
| 2026-05-07 11:50 | 23.97452 | 47.72111 | 23573 ft | 426 kts | 138° |
| 2026-05-07 11:50 | 23.96030 | 47.73608 | 23769 ft | 428 kts | 138° |
| 2026-05-07 11:51 | 23.93185 | 47.76606 | 24180 ft | 430 kts | 139° |
| 2026-05-07 11:51 | 23.91025 | 47.78879 | 24473 ft | 433 kts | 139° |
| 2026-05-07 11:51 | 23.88855 | 47.81162 | 24769 ft | 435 kts | 139° |
| 2026-05-07 11:51 | 23.86666 | 47.83464 | 25093 ft | 436 kts | 139° |
| 2026-05-07 11:52 | 23.84474 | 47.85768 | 25379 ft | 439 kts | 139° |
| 2026-05-07 11:52 | 23.82270 | 47.88081 | 25681 ft | 441 kts | 139° |
| 2026-05-07 11:52 | 23.80799 | 47.89626 | 25883 ft | 442 kts | 140° |
| 2026-05-07 11:52 | 23.78581 | 47.91953 | 26183 ft | 444 kts | 140° |
| 2026-05-07 11:53 | 23.76346 | 47.94297 | 26481 ft | 446 kts | 140° |
| 2026-05-07 11:53 | 23.74104 | 47.96647 | 26766 ft | 448 kts | 140° |
| 2026-05-07 11:53 | 23.71847 | 47.99012 | 27055 ft | 450 kts | 140° |
| 2026-05-07 11:53 | 23.69582 | 48.01384 | 27341 ft | 452 kts | 140° |
| 2026-05-07 11:54 | 23.67311 | 48.03761 | 27632 ft | 454 kts | 140° |
| 2026-05-07 11:54 | 23.65030 | 48.06148 | 27916 ft | 456 kts | 140° |
| 2026-05-07 11:54 | 23.62735 | 48.08549 | 28193 ft | 458 kts | 140° |
| 2026-05-07 11:54 | 23.60436 | 48.10952 | 28474 ft | 459 kts | 141° |
| 2026-05-07 11:55 | 23.58121 | 48.13372 | 28752 ft | 461 kts | 141° |
| 2026-05-07 11:55 | 23.55796 | 48.15799 | 29020 ft | 463 kts | 141° |
| 2026-05-07 11:55 | 23.53463 | 48.18234 | 29280 ft | 465 kts | 141° |
| 2026-05-07 11:55 | 23.51115 | 48.20684 | 29544 ft | 467 kts | 141° |
| 2026-05-07 11:56 | 23.48759 | 48.23139 | 29822 ft | 469 kts | 141° |
| 2026-05-07 11:56 | 23.46427 | 48.25569 | 30050 ft | 471 kts | 141° |
| 2026-05-07 11:56 | 23.44054 | 48.28040 | 30292 ft | 473 kts | 141° |
| 2026-05-07 11:56 | 23.41698 | 48.30564 | 30498 ft | 478 kts | 136° |
| 2026-05-07 11:57 | 23.39707 | 48.33498 | 30733 ft | 487 kts | 125° |
| 2026-05-07 11:57 | 23.38240 | 48.36854 | 30963 ft | 496 kts | 113° |
| 2026-05-07 11:57 | 23.37365 | 48.40528 | 31201 ft | 504 kts | 102° |
| 2026-05-07 11:57 | 23.37117 | 48.44349 | 31428 ft | 510 kts | 92° |
| 2026-05-07 11:58 | 23.37209 | 48.48230 | 31646 ft | 513 kts | 90° |
| 2026-05-07 11:58 | 23.37294 | 48.52117 | 31871 ft | 515 kts | 92° |
| 2026-05-07 11:58 | 23.37283 | 48.56018 | 32088 ft | 516 kts | 94° |
| 2026-05-07 11:58 | 23.37190 | 48.59924 | 32288 ft | 517 kts | 95° |
| 2026-05-07 11:59 | 23.37048 | 48.63851 | 32477 ft | 519 kts | 95° |
| 2026-05-07 11:59 | 23.36886 | 48.67781 | 32643 ft | 520 kts | 95° |
| 2026-05-07 11:59 | 23.36716 | 48.71718 | 32795 ft | 521 kts | 95° |
| 2026-05-07 11:59 | 23.36548 | 48.75622 | 32942 ft | 522 kts | 95° |
| 2026-05-07 12:00 | 23.36378 | 48.79577 | 33069 ft | 523 kts | 95° |
| 2026-05-07 12:00 | 23.36208 | 48.83537 | 33183 ft | 524 kts | 95° |
| 2026-05-07 12:00 | 23.36037 | 48.87508 | 33303 ft | 525 kts | 95° |
| 2026-05-07 12:00 | 23.35865 | 48.91480 | 33435 ft | 525 kts | 95° |
| 2026-05-07 12:01 | 23.35693 | 48.95454 | 33588 ft | 525 kts | 95° |
| 2026-05-07 12:01 | 23.35519 | 48.99417 | 33742 ft | 524 kts | 95° |
| 2026-05-07 12:01 | 23.35345 | 49.03385 | 33876 ft | 524 kts | 95° |
| 2026-05-07 12:01 | 23.35091 | 49.07338 | 34009 ft | 522 kts | 100° |
| 2026-05-07 12:02 | 23.34539 | 49.11228 | 34143 ft | 520 kts | 102° |
| 2026-05-07 12:02 | 23.33966 | 49.15113 | 34259 ft | 520 kts | 102° |
| 2026-05-07 12:02 | 23.33404 | 49.18998 | 34380 ft | 520 kts | 102° |
| 2026-05-07 12:02 | 23.32853 | 49.22840 | 34501 ft | 520 kts | 102° |
| 2026-05-07 12:03 | 23.32297 | 49.26727 | 34629 ft | 519 kts | 102° |
| 2026-05-07 12:03 | 23.31739 | 49.30616 | 34760 ft | 519 kts | 102° |
| 2026-05-07 12:03 | 23.31179 | 49.34500 | 34788 ft | 519 kts | 102° |
| 2026-05-07 12:04 | 23.30059 | 49.42239 | 34788 ft | 518 kts | 102° |
| 2026-05-07 12:04 | 23.28933 | 49.49981 | 34788 ft | 518 kts | 102° |
| 2026-05-07 12:05 | 23.27803 | 49.57727 | 34790 ft | 518 kts | 102° |
| 2026-05-07 12:05 | 23.26670 | 49.65467 | 34790 ft | 518 kts | 102° |
| 2026-05-07 12:06 | 23.25540 | 49.73160 | 34788 ft | 518 kts | 102° |
| 2026-05-07 12:06 | 23.24401 | 49.80887 | 34785 ft | 517 kts | 102° |
| 2026-05-07 12:07 | 23.23259 | 49.88609 | 34782 ft | 517 kts | 102° |
| 2026-05-07 12:07 | 23.22113 | 49.96328 | 34787 ft | 517 kts | 102° |
| 2026-05-07 12:08 | 23.20966 | 50.04035 | 34785 ft | 516 kts | 101° |
| 2026-05-07 12:08 | 23.19813 | 50.11747 | 34781 ft | 516 kts | 101° |
| 2026-05-07 12:09 | 23.18657 | 50.19461 | 34783 ft | 516 kts | 101° |
| 2026-05-07 12:09 | 23.17507 | 50.27106 | 34784 ft | 516 kts | 101° |
| 2026-05-07 12:10 | 23.16346 | 50.34797 | 34782 ft | 515 kts | 101° |
| 2026-05-07 12:10 | 23.15182 | 50.42482 | 34780 ft | 515 kts | 101° |
| 2026-05-07 12:11 | 23.14014 | 50.50167 | 34778 ft | 515 kts | 101° |
| 2026-05-07 12:11 | 23.12842 | 50.57856 | 34773 ft | 515 kts | 101° |
| 2026-05-07 12:12 | 23.11670 | 50.65515 | 34777 ft | 514 kts | 101° |
| 2026-05-07 12:12 | 23.10492 | 50.73190 | 34777 ft | 514 kts | 101° |
| 2026-05-07 12:13 | 23.09321 | 50.80792 | 34776 ft | 513 kts | 101° |
| 2026-05-07 12:13 | 23.08139 | 50.88443 | 34771 ft | 513 kts | 101° |
| 2026-05-07 12:14 | 23.06953 | 50.96099 | 34771 ft | 513 kts | 101° |
| 2026-05-07 12:14 | 23.05774 | 51.03678 | 34771 ft | 512 kts | 101° |
| 2026-05-07 12:15 | 23.04584 | 51.11304 | 34768 ft | 512 kts | 101° |
| 2026-05-07 12:15 | 23.03389 | 51.18940 | 34770 ft | 512 kts | 101° |
| 2026-05-07 12:16 | 23.02199 | 51.26517 | 34769 ft | 511 kts | 101° |
| 2026-05-07 12:16 | 23.00992 | 51.34178 | 34766 ft | 511 kts | 101° |
| 2026-05-07 12:17 | 22.99798 | 51.41734 | 34762 ft | 511 kts | 101° |
| 2026-05-07 12:17 | 22.98593 | 51.49337 | 34759 ft | 511 kts | 101° |
| 2026-05-07 12:18 | 22.97384 | 51.56936 | 34763 ft | 510 kts | 101° |
| 2026-05-07 12:18 | 22.96174 | 51.64522 | 34761 ft | 510 kts | 101° |
| 2026-05-07 12:19 | 22.94961 | 51.72101 | 34762 ft | 510 kts | 101° |
| 2026-05-07 12:19 | 22.93744 | 51.79678 | 34762 ft | 510 kts | 101° |
| 2026-05-07 12:20 | 22.92525 | 51.87252 | 34761 ft | 509 kts | 101° |
| 2026-05-07 12:20 | 22.91301 | 51.94826 | 34759 ft | 509 kts | 101° |
| 2026-05-07 12:21 | 22.90075 | 52.02386 | 34762 ft | 509 kts | 101° |
| 2026-05-07 12:21 | 22.88846 | 52.09945 | 34762 ft | 509 kts | 101° |
| 2026-05-07 12:22 | 22.87621 | 52.17461 | 34760 ft | 508 kts | 101° |
| 2026-05-07 12:22 | 22.86386 | 52.25015 | 34760 ft | 508 kts | 101° |
| 2026-05-07 12:23 | 22.85148 | 52.32560 | 34759 ft | 508 kts | 101° |
| 2026-05-07 12:23 | 22.83907 | 52.40104 | 34759 ft | 507 kts | 101° |
| 2026-05-07 12:24 | 22.82676 | 52.47579 | 34763 ft | 507 kts | 101° |
| 2026-05-07 12:24 | 22.81597 | 52.55136 | 34762 ft | 507 kts | 98° |
| 2026-05-07 12:25 | 22.80749 | 52.62744 | 34759 ft | 507 kts | 98° |
| 2026-05-07 12:25 | 22.79865 | 52.70329 | 34761 ft | 507 kts | 98° |
| 2026-05-07 12:26 | 22.78947 | 52.77911 | 34764 ft | 507 kts | 98° |
| 2026-05-07 12:26 | 22.78022 | 52.85485 | 34762 ft | 507 kts | 98° |
| 2026-05-07 12:27 | 22.77099 | 52.93018 | 34768 ft | 507 kts | 98° |
| 2026-05-07 12:27 | 22.76165 | 53.00612 | 34768 ft | 507 kts | 98° |
| 2026-05-07 12:28 | 22.75229 | 53.08193 | 34770 ft | 507 kts | 99° |
| 2026-05-07 12:28 | 22.74290 | 53.15766 | 34780 ft | 507 kts | 98° |
| 2026-05-07 12:29 | 22.73347 | 53.23345 | 34768 ft | 507 kts | 98° |
| 2026-05-07 12:29 | 22.72407 | 53.30865 | 34765 ft | 507 kts | 99° |
| 2026-05-07 12:30 | 22.71458 | 53.38429 | 34765 ft | 507 kts | 99° |
| 2026-05-07 12:30 | 22.70506 | 53.45994 | 34776 ft | 507 kts | 99° |
| 2026-05-07 12:31 | 22.69550 | 53.53556 | 34775 ft | 507 kts | 99° |
| 2026-05-07 12:31 | 22.68589 | 53.61134 | 34778 ft | 507 kts | 99° |
| 2026-05-07 12:32 | 22.67626 | 53.68695 | 34776 ft | 507 kts | 99° |
| 2026-05-07 12:32 | 22.66659 | 53.76250 | 34764 ft | 507 kts | 99° |
| 2026-05-07 12:33 | 22.65202 | 53.87593 | 34775 ft | 507 kts | 99° |
| 2026-05-07 12:33 | 22.64226 | 53.95155 | 34780 ft | 507 kts | 99° |
| 2026-05-07 12:34 | 22.63253 | 54.02670 | 34779 ft | 507 kts | 99° |
| 2026-05-07 12:34 | 22.62270 | 54.10225 | 34782 ft | 507 kts | 99° |
| 2026-05-07 12:35 | 22.61283 | 54.17786 | 34781 ft | 507 kts | 99° |
| 2026-05-07 12:35 | 22.60291 | 54.25348 | 34780 ft | 507 kts | 99° |
| 2026-05-07 12:36 | 22.59299 | 54.32899 | 34784 ft | 507 kts | 99° |
| 2026-05-07 12:36 | 22.58302 | 54.40449 | 34778 ft | 507 kts | 99° |
| 2026-05-07 12:37 | 22.57308 | 54.47958 | 34775 ft | 507 kts | 99° |
| 2026-05-07 12:37 | 22.56304 | 54.55501 | 34779 ft | 507 kts | 99° |
| 2026-05-07 12:38 | 22.55296 | 54.63053 | 34778 ft | 506 kts | 99° |
| 2026-05-07 12:38 | 22.54285 | 54.70605 | 34783 ft | 506 kts | 99° |
| 2026-05-07 12:39 | 22.53273 | 54.78136 | 34783 ft | 506 kts | 99° |
| 2026-05-07 12:39 | 22.52255 | 54.85684 | 34782 ft | 506 kts | 99° |
| 2026-05-07 12:40 | 22.51406 | 54.91952 | 34783 ft | 506 kts | 99° |
| 2026-05-07 12:40 | 22.50210 | 55.00755 | 34789 ft | 506 kts | 99° |
| 2026-05-07 12:41 | 22.49188 | 55.08243 | 34793 ft | 506 kts | 99° |
| 2026-05-07 12:41 | 22.48159 | 55.15766 | 34799 ft | 506 kts | 99° |
| 2026-05-07 12:42 | 22.47301 | 55.22018 | 34796 ft | 506 kts | 99° |
| 2026-05-07 12:42 | 22.46264 | 55.29548 | 34797 ft | 506 kts | 99° |
| 2026-05-07 12:43 | 22.45959 | 55.37122 | 34799 ft | 506 kts | 83° |
| 2026-05-07 12:43 | 22.47742 | 55.44450 | 34802 ft | 505 kts | 66° |
| 2026-05-07 12:44 | 22.50432 | 55.51467 | 34800 ft | 506 kts | 67° |
| 2026-05-07 12:44 | 22.53082 | 55.58521 | 34805 ft | 506 kts | 67° |
| 2026-05-07 12:45 | 22.55723 | 55.65576 | 34809 ft | 506 kts | 67° |
| 2026-05-07 12:45 | 22.58349 | 55.72601 | 34812 ft | 506 kts | 67° |
| 2026-05-07 12:46 | 22.60985 | 55.79660 | 34817 ft | 506 kts | 67° |
| 2026-05-07 12:46 | 22.63619 | 55.86725 | 34821 ft | 506 kts | 67° |
| 2026-05-07 12:47 | 22.66254 | 55.93803 | 34824 ft | 506 kts | 67° |
| 2026-05-07 12:47 | 22.68884 | 56.00878 | 34830 ft | 506 kts | 67° |
| 2026-05-07 12:48 | 22.71495 | 56.07914 | 34834 ft | 506 kts | 67° |
| 2026-05-07 12:48 | 22.74117 | 56.14992 | 34834 ft | 506 kts | 67° |
| 2026-05-07 12:49 | 22.76734 | 56.22066 | 34839 ft | 506 kts | 68° |
| 2026-05-07 12:49 | 22.79350 | 56.29150 | 34844 ft | 506 kts | 68° |
| 2026-05-07 12:50 | 22.81957 | 56.36246 | 34846 ft | 506 kts | 69° |
| 2026-05-07 12:50 | 22.83793 | 56.43609 | 34859 ft | 507 kts | 78° |
| 2026-05-07 12:51 | 22.85196 | 56.51113 | 34858 ft | 507 kts | 78° |
| 2026-05-07 12:51 | 22.86616 | 56.58557 | 34868 ft | 507 kts | 78° |
| 2026-05-07 12:52 | 22.88040 | 56.66056 | 34877 ft | 507 kts | 78° |
| 2026-05-07 12:52 | 22.89458 | 56.73556 | 34889 ft | 507 kts | 78° |
| 2026-05-07 12:53 | 22.90873 | 56.81062 | 34902 ft | 507 kts | 78° |
| 2026-05-07 12:53 | 22.92282 | 56.88559 | 34915 ft | 507 kts | 78° |
| 2026-05-07 12:54 | 22.93214 | 56.93530 | 34916 ft | 507 kts | 78° |
| 2026-05-07 12:54 | 22.95082 | 57.03513 | 34923 ft | 507 kts | 78° |
| 2026-05-07 12:55 | 22.96480 | 57.11014 | 34921 ft | 507 kts | 78° |
| 2026-05-07 12:55 | 22.97178 | 57.14763 | 34925 ft | 507 kts | 78° |